Time;durP1;ratioP1;P1;durP2;ratioP2;P2;SDS_P1;SDS_P2;PMS_P1;PMS_P2;Temp;Humidity;BMP_temperature;BMP_pressure;BME280_temperature;BME280_humidity;BME280_pressure;Samples;Min_cycle;Max_cycle;Signal;HPM_P1;HPM_P2
2023/08/09 00:04:12;;;;;;;;;;;;;;;20.69;51.14;95668.00;10458845;28;1421;-67
2023/08/09 00:09:12;;;;;;;;;;;;;;;20.68;50.95;95667.19;10455676;28;1781;-69
2023/08/09 00:14:13;;;;;;;;;;;;;;;20.69;51.17;95668.75;10456444;28;1910;-68
2023/08/09 00:19:13;;;;;;;;;;;;;;;20.68;51.14;95667.19;10456045;28;1729;-68
2023/08/09 00:24:14;;;;;;;;;;;;;;;20.68;51.14;95669.84;10442380;28;2115;-68
2023/08/09 00:29:14;;;;;;;;;;;;;;;20.67;51.22;95660.34;10449535;28;2238;-68
2023/08/09 00:34:14;;;;;;;;;;;;;;;20.67;51.05;95662.97;10449995;28;2624;-67
2023/08/09 00:39:15;;;;;;;;;;;;;;;20.67;51.04;95649.03;10449154;28;1970;-68
2023/08/09 00:44:15;;;;;;;;;;;;;;;20.66;51.22;95645.63;10452947;28;4557;-68
2023/08/09 00:49:16;;;;;;;;;;;;;;;20.67;50.89;95646.41;10462081;28;1892;-67
2023/08/09 00:54:16;;;;;;;;;;;;;;;20.66;51.03;95645.63;10453407;28;1922;-67
2023/08/09 00:59:17;;;;;;;;;;;;;;;20.66;50.72;95645.63;10457845;28;1889;-66
2023/08/09 01:04:17;;;;;;;;;;;;;;;20.66;50.84;95648.25;10458617;28;1882;-67
2023/08/09 01:09:34;;;;;;;;;;;;;;;20.66;50.81;95658.78;10458807;28;2032;-73
2023/08/09 01:14:36;;;;;;;;;;;;;;;20.65;50.98;95649.31;10456512;28;1898;-69
2023/08/09 01:19:45;;;;;;;;;;;;;;;20.65;50.77;95657.19;10451346;28;1886;-70
2023/08/09 01:24:45;;;;;;;;;;;;;;;20.66;50.96;95650.88;10449523;28;1965;-68
2023/08/09 01:29:47;;;;;;;;;;;;;;;20.65;51.00;95653.81;10463817;28;1516;-67
2023/08/09 01:34:47;;;;;;;;;;;;;;;20.65;50.89;95656.44;10451841;28;2694;-67
2023/08/09 01:39:48;;;;;;;;;;;;;;;20.64;50.92;95650.38;10457281;28;4529;-66
2023/08/09 01:44:49;;;;;;;;;;;;;;;20.64;50.75;95655.66;10469310;28;1866;-67
2023/08/09 01:49:51;;;;;;;;;;;;;;;20.64;50.75;95655.66;10494409;28;1899;-67
2023/08/09 01:54:51;;;;;;;;;;;;;;;20.64;50.78;95649.59;10456772;28;1969;-66
2023/08/09 01:59:52;;;;;;;;;;;;;;;20.65;50.65;95632.72;10461429;28;1471;-67
2023/08/09 02:04:52;;;;;;;;;;;;;;;20.63;50.84;95635.63;10454965;28;1854;-66
2023/08/09 02:09:52;;;;;;;;;;;;;;;20.64;50.65;95633.78;10459790;28;1465;-66
2023/08/09 02:14:53;;;;;;;;;;;;;;;20.63;50.72;95633.00;10468518;28;1963;-67
2023/08/09 02:19:54;;;;;;;;;;;;;;;20.62;50.55;95636.69;10470226;28;1746;-68
2023/08/09 02:24:54;;;;;;;;;;;;;;;20.63;50.58;95624.31;10450892;28;1690;-68
2023/08/09 02:29:55;;;;;;;;;;;;;;;20.64;50.36;95610.06;10451552;28;2315;-67
2023/08/09 02:34:55;;;;;;;;;;;;;;;20.62;50.37;95610.38;10460651;28;2021;-67
2023/08/09 02:39:56;;;;;;;;;;;;;;;20.61;50.41;95608.78;10454722;28;4572;-67
2023/08/09 02:44:56;;;;;;;;;;;;;;;20.62;50.29;95601.66;10465638;28;1514;-67
2023/08/09 02:49:57;;;;;;;;;;;;;;;20.62;50.25;95609.56;10452976;28;1507;-67
2023/08/09 02:54:57;;;;;;;;;;;;;;;20.61;50.41;95613.28;10457263;28;1972;-67
2023/08/09 02:59:57;;;;;;;;;;;;;;;20.60;50.14;95601.16;10463114;28;1453;-67
2023/08/09 03:04:59;;;;;;;;;;;;;;;20.61;50.29;95608.00;10451945;28;1492;-67
2023/08/09 03:10:00;;;;;;;;;;;;;;;20.61;50.51;95608.78;10492597;28;1463;-67
2023/08/09 03:15:00;;;;;;;;;;;;;;;20.60;50.34;95594.06;10462351;28;1938;-68
2023/08/09 03:20:01;;;;;;;;;;;;;;;20.60;50.12;95599.31;10452918;28;1648;-68
2023/08/09 03:25:01;;;;;;;;;;;;;;;20.60;50.34;95612.50;10453091;28;2237;-68
2023/08/09 03:30:03;;;;;;;;;;;;;;;20.60;50.24;95628.28;10452589;28;1447;-67
2023/08/09 03:35:05;;;;;;;;;;;;;;;20.59;50.20;95618.00;10447809;28;1965;-68
2023/08/09 03:40:09;;;;;;;;;;;;;;;20.59;50.03;95629.34;10490196;28;4497;-68
2023/08/09 03:45:09;;;;;;;;;;;;;;;20.59;50.12;95631.19;10454513;28;1535;-67
2023/08/09 03:50:10;;;;;;;;;;;;;;;20.58;50.26;95633.03;10455208;28;1518;-67
2023/08/09 03:55:10;;;;;;;;;;;;;;;20.59;49.84;95633.81;10452735;28;1914;-67
2023/08/09 04:00:17;;;;;;;;;;;;;;;20.57;50.31;95647.25;10455655;28;1527;-67
2023/08/09 04:05:19;;;;;;;;;;;;;;;20.58;49.89;95648.06;10451732;28;1576;-69
2023/08/09 04:10:19;;;;;;;;;;;;;;;20.58;49.78;95656.75;10456062;28;1416;-67
2023/08/09 04:15:21;;;;;;;;;;;;;;;20.57;49.83;95652.53;10448307;28;2000;-68
2023/08/09 04:20:22;;;;;;;;;;;;;;;20.56;49.93;95656.25;10457872;28;2261;-67
2023/08/09 04:25:22;;;;;;;;;;;;;;;20.57;50.02;95673.59;10452221;28;1775;-67
2023/08/09 04:30:23;;;;;;;;;;;;;;;20.57;49.93;95675.44;10455218;28;1708;-67
2023/08/09 04:35:23;;;;;;;;;;;;;;;20.57;49.80;95655.16;10455344;28;1913;-67
2023/08/09 04:40:25;;;;;;;;;;;;;;;20.56;50.07;95666.78;10447171;28;4640;-67
2023/08/09 04:45:25;;;;;;;;;;;;;;;20.57;49.86;95668.31;10453319;28;1767;-67
2023/08/09 04:50:25;;;;;;;;;;;;;;;20.57;49.78;95670.16;10457913;28;1763;-67
2023/08/09 04:55:25;;;;;;;;;;;;;;;20.56;49.80;95674.66;10455183;28;1985;-67
2023/08/09 05:00:26;;;;;;;;;;;;;;;20.57;49.82;95672.81;10448045;28;1410;-67
2023/08/09 05:05:27;;;;;;;;;;;;;;;20.57;49.97;95675.44;10456564;28;1518;-67
2023/08/09 05:10:27;;;;;;;;;;;;;;;20.56;49.69;95673.88;10453322;28;1440;-67
2023/08/09 05:15:28;;;;;;;;;;;;;;;20.56;49.63;95672.03;10460902;28;2413;-66
2023/08/09 05:20:28;;;;;;;;;;;;;;;20.56;49.69;95668.63;10460788;28;1745;-67
2023/08/09 05:25:28;;;;;;;;;;;;;;;20.56;49.68;95681.78;10459727;28;1665;-67
2023/08/09 05:30:29;;;;;;;;;;;;;;;20.55;50.00;95696.78;10460853;28;1728;-68
2023/08/09 05:35:29;;;;;;;;;;;;;;;20.55;49.72;95696.78;10458581;28;1898;-63
2023/08/09 05:40:29;;;;;;;;;;;;;;;20.55;49.67;95702.06;10455344;28;4548;-62
2023/08/09 05:45:29;;;;;;;;;;;;;;;20.56;49.73;95697.59;10459602;28;1685;-67
2023/08/09 05:50:30;;;;;;;;;;;;;;;20.55;49.66;95699.41;10454680;28;1982;-66
2023/08/09 05:55:30;;;;;;;;;;;;;;;20.56;49.71;95694.94;10457668;28;1922;-67
2023/08/09 06:00:30;;;;;;;;;;;;;;;20.55;49.94;95686.25;10468914;28;1529;-66
2023/08/09 06:05:31;;;;;;;;;;;;;;;20.56;49.60;95681.78;10463297;28;1486;-67
2023/08/09 06:10:31;;;;;;;;;;;;;;;20.55;49.73;95688.88;10470169;28;1452;-67
2023/08/09 06:15:31;;;;;;;;;;;;;;;20.55;49.91;95683.63;10466868;28;2450;-66
2023/08/09 06:20:32;;;;;;;;;;;;;;;20.56;49.67;95697.59;10459650;28;1597;-67
2023/08/09 06:25:32;;;;;;;;;;;;;;;20.55;49.94;95693.34;10457995;28;1645;-68
2023/08/09 06:30:32;;;;;;;;;;;;;;;20.54;49.58;95689.97;10466102;28;1415;-68
2023/08/09 06:35:32;;;;;;;;;;;;;;;20.54;49.65;95708.41;10459001;28;1914;-68
2023/08/09 06:40:33;;;;;;;;;;;;;;;20.55;49.82;95706.53;10457699;28;4965;-67
2023/08/09 06:45:33;;;;;;;;;;;;;;;20.52;49.56;95699.97;10462050;28;1549;-67
2023/08/09 06:50:34;;;;;;;;;;;;;;;20.54;49.75;95713.66;10463648;28;1431;-67
2023/08/09 06:55:34;;;;;;;;;;;;;;;20.54;49.62;95708.41;10466291;28;1906;-67
2023/08/09 07:00:34;;;;;;;;;;;;;;;20.54;49.59;95718.94;10462101;28;1479;-67
2023/08/09 07:05:34;;;;;;;;;;;;;;;20.54;50.03;95710.22;10459305;28;1571;-67
2023/08/09 07:10:35;;;;;;;;;;;;;;;20.53;49.91;95712.06;10462372;28;2381;-67
2023/08/09 07:15:35;;;;;;;;;;;;;;;20.55;49.65;95719.69;10459323;28;1913;-67
2023/08/09 07:20:35;;;;;;;;;;;;;;;20.53;49.52;95717.34;10464984;28;1375;-67
2023/08/09 07:25:36;;;;;;;;;;;;;;;20.53;49.54;95717.34;10470448;28;1418;-68
2023/08/09 07:30:36;;;;;;;;;;;;;;;20.53;49.45;95719.97;10464275;28;1516;-67
2023/08/09 07:35:36;;;;;;;;;;;;;;;20.52;49.36;95726.31;10463522;28;2280;-67
2023/08/09 07:40:36;;;;;;;;;;;;;;;20.53;49.53;95727.88;10463333;28;4600;-67
2023/08/09 07:45:37;;;;;;;;;;;;;;;20.53;49.73;95730.50;10462114;28;1504;-67
2023/08/09 07:50:37;;;;;;;;;;;;;;;20.52;49.53;95728.94;10458224;28;1625;-68
2023/08/09 07:55:38;;;;;;;;;;;;;;;20.52;49.66;95720.25;10458556;28;1898;-68
2023/08/09 08:00:39;;;;;;;;;;;;;;;20.52;49.69;95718.41;10453920;28;1860;-67
2023/08/09 08:05:40;;;;;;;;;;;;;;;20.52;49.56;95705.25;10465824;28;2539;-67
2023/08/09 08:10:41;;;;;;;;;;;;;;;20.53;49.66;95722.59;10455092;28;1729;-68
2023/08/09 08:15:41;;;;;;;;;;;;;;;20.52;49.59;95721.06;10457947;28;1973;-68
2023/08/09 08:20:42;;;;;;;;;;;;;;;20.52;49.45;95731.59;10466740;28;1772;-67
2023/08/09 08:25:42;;;;;;;;;;;;;;;20.52;49.38;95721.06;10447644;28;1834;-68
2023/08/09 08:30:42;;;;;;;;;;;;;;;20.52;49.31;95721.06;10468494;28;1864;-68
2023/08/09 08:35:48;;;;;;;;;;;;;;;20.52;49.34;95726.31;10457517;28;1993;-67
2023/08/09 08:40:48;;;;;;;;;;;;;;;20.51;49.35;95722.09;10461822;28;4453;-67
2023/08/09 08:45:49;;;;;;;;;;;;;;;20.52;49.55;95725.53;10456576;28;1721;-67
2023/08/09 08:50:50;;;;;;;;;;;;;;;20.52;49.63;95725.53;10453656;28;1977;-66
2023/08/09 08:55:51;;;;;;;;;;;;;;;20.51;49.45;95730.00;10450294;28;1585;-67
2023/08/09 09:00:51;;;;;;;;;;;;;;;20.49;49.85;95724.22;10460421;28;2383;-67
2023/08/09 09:05:51;;;;;;;;;;;;;;;20.52;49.36;95731.59;10460201;28;1827;-69
2023/08/09 09:10:53;;;;;;;;;;;;;;;20.53;49.77;95748.16;10460915;28;1961;-68
2023/08/09 09:15:54;;;;;;;;;;;;;;;20.55;50.17;95746.03;10454813;28;1467;-69
2023/08/09 09:20:54;;;;;;;;;;;;;;;20.56;50.47;95737.09;10452427;28;1494;-69
2023/08/09 09:26:01;;;;;;;;;;;;;;;20.57;50.63;95739.44;10456103;28;1546;-69
2023/08/09 09:31:01;;;;;;;;;;;;;;;20.58;50.66;95746.28;10459868;28;1965;-68
2023/08/09 09:36:02;;;;;;;;;;;;;;;20.59;51.01;95736.53;10455875;28;1633;-68
2023/08/09 09:41:02;;;;;;;;;;;;;;;20.59;51.06;95741.78;10458057;28;4502;-68
2023/08/09 09:46:03;;;;;;;;;;;;;;;20.60;50.96;95749.44;10452855;28;1524;-68
2023/08/09 09:51:03;;;;;;;;;;;;;;;20.61;51.19;95750.22;10460771;28;1993;-67
2023/08/09 09:56:03;;;;;;;;;;;;;;;20.61;51.14;95766.78;10453162;28;1333;-69
2023/08/09 10:01:04;;;;;;;;;;;;;;;20.62;51.09;95760.47;10466414;28;2729;-69
2023/08/09 10:06:05;;;;;;;;;;;;;;;20.63;51.06;95780.47;10458719;28;1330;-68
2023/08/09 10:11:06;;;;;;;;;;;;;;;20.63;51.31;95790.25;10455406;28;1910;-70
2023/08/09 10:16:06;;;;;;;;;;;;;;;20.64;51.36;95797.88;10496560;28;1534;-70
2023/08/09 10:21:07;;;;;;;;;;;;;;;20.65;51.31;95778.34;10458576;28;1360;-67
2023/08/09 10:26:07;;;;;;;;;;;;;;;20.64;51.31;95773.38;10490497;28;1521;-68
2023/08/09 10:31:07;;;;;;;;;;;;;;;20.65;51.49;95767.81;10483616;28;1988;-68
2023/08/09 10:36:07;;;;;;;;;;;;;;;20.66;51.21;95760.72;10462369;28;1322;-68
2023/08/09 10:41:09;;;;;;;;;;;;;;;20.64;51.25;95758.38;10464068;28;1424;-67
2023/08/09 10:46:39;;;;;;;;;;;;;;;20.66;51.32;95758.88;10466623;28;1456;-65
2023/08/09 10:51:45;;;;;;;;;;;;;;;20.65;51.35;95759.91;10449604;28;1987;-66
2023/08/09 10:56:46;;;;;;;;;;;;;;;20.66;51.36;95755.44;10454536;28;1748;-67
2023/08/09 11:01:46;;;;;;;;;;;;;;;20.66;51.46;95744.91;10443634;28;1917;-66
2023/08/09 11:06:47;;;;;;;;;;;;;;;20.67;51.34;95752.53;10447373;28;1943;-67
2023/08/09 11:11:48;;;;;;;;;;;;;;;20.69;51.54;95747.00;10462396;28;1910;-66
2023/08/09 11:16:48;;;;;;;;;;;;;;;20.68;51.78;95750.69;10456750;28;1890;-67
2023/08/09 11:21:52;;;;;;;;;;;;;;;20.69;51.67;95744.38;10454546;28;1826;-66
2023/08/09 11:26:53;;;;;;;;;;;;;;;20.69;51.83;95739.13;10476119;28;1971;-66
2023/08/09 11:31:54;;;;;;;;;;;;;;;20.69;51.51;95741.75;10448965;28;1910;-67
2023/08/09 11:36:55;;;;;;;;;;;;;;;20.70;51.62;95745.94;10449430;28;1939;-67
2023/08/09 11:41:56;;;;;;;;;;;;;;;20.69;51.38;95745.16;10443384;28;4490;-67
2023/08/09 11:46:56;;;;;;;;;;;;;;;20.70;51.12;95740.66;10442584;28;1923;-66
2023/08/09 11:51:56;;;;;;;;;;;;;;;20.69;51.13;95737.25;10441496;28;2253;-67
2023/08/09 11:56:58;;;;;;;;;;;;;;;20.69;51.28;95731.97;10452422;28;2010;-66
2023/08/09 12:01:58;;;;;;;;;;;;;;;20.69;51.14;95729.34;10445504;28;1898;-67
2023/08/09 12:07:00;;;;;;;;;;;;;;;20.69;51.08;95724.06;10440167;28;1850;-66
2023/08/09 12:12:03;;;;;;;;;;;;;;;20.70;50.93;95723.03;10448276;28;1905;-66
2023/08/09 12:17:03;;;;;;;;;;;;;;;20.69;51.18;95724.06;10448686;28;1899;-67
2023/08/09 12:22:04;;;;;;;;;;;;;;;20.69;51.05;95725.94;10440967;28;1862;-67
2023/08/09 12:27:04;;;;;;;;;;;;;;;20.68;50.94;95730.41;10445721;28;1896;-67
2023/08/09 12:32:04;;;;;;;;;;;;;;;20.68;50.73;95724.34;10452117;28;1971;-68
2023/08/09 12:37:05;;;;;;;;;;;;;;;20.68;50.72;95722.50;10451367;28;1918;-67
2023/08/09 12:42:05;;;;;;;;;;;;;;;20.68;50.39;95725.16;10450214;28;4283;-67
2023/08/09 12:47:06;;;;;;;;;;;;;;;20.69;50.54;95705.63;10442244;28;2256;-67
2023/08/09 12:52:07;;;;;;;;;;;;;;;20.70;50.94;95722.22;10446673;28;2088;-67
2023/08/09 12:57:07;;;;;;;;;;;;;;;20.71;50.90;95724.59;10442050;28;1893;-66
2023/08/09 13:02:08;;;;;;;;;;;;;;;20.73;51.05;95721.69;10444504;28;1949;-66
2023/08/09 13:07:08;;;;;;;;;;;;;;;20.72;50.96;95715.63;10447596;28;2085;-66
2023/08/09 13:12:09;;;;;;;;;;;;;;;20.73;50.78;95721.69;10448989;28;2064;-67
2023/08/09 13:17:10;;;;;;;;;;;;;;;20.72;50.86;95714.84;10447841;28;1901;-67
2023/08/09 13:22:10;;;;;;;;;;;;;;;20.74;50.77;95715.34;10440701;28;1922;-67
2023/08/09 13:27:10;;;;;;;;;;;;;;;20.73;51.14;95719.06;10450916;28;1934;-67
2023/08/09 13:32:11;;;;;;;;;;;;;;;20.73;50.67;95716.44;10445477;28;2072;-68
2023/08/09 13:37:12;;;;;;;;;;;;;;;20.71;50.82;95716.69;10451408;28;1853;-69
2023/08/09 13:42:12;;;;;;;;;;;;;;;20.72;50.98;95715.63;10453936;28;4572;-68
2023/08/09 13:47:12;;;;;;;;;;;;;;;20.72;50.99;95720.91;10451576;28;1891;-66
2023/08/09 13:52:15;;;;;;;;;;;;;;;20.73;51.15;95717.19;10443818;28;1970;-66
2023/08/09 13:57:16;;;;;;;;;;;;;;;20.74;51.37;95721.41;10450399;28;2058;-67
2023/08/09 14:02:16;;;;;;;;;;;;;;;20.75;51.77;95727.47;10463201;28;1865;-66
2023/08/09 14:07:17;;;;;;;;;;;;;;;20.77;51.91;95720.09;10455055;28;2057;-66
2023/08/09 14:12:17;;;;;;;;;;;;;;;20.78;52.34;95719.00;10455058;28;1966;-67
2023/08/09 14:17:17;;;;;;;;;;;;;;;20.80;52.53;95732.69;10464155;28;1774;-66
2023/08/09 14:22:17;;;;;;;;;;;;;;;20.80;52.94;95743.22;10450589;28;1681;-66
2023/08/09 14:27:18;;;;;;;;;;;;;;;20.81;52.99;95742.94;10461577;28;1465;-66
2023/08/09 14:32:19;;;;;;;;;;;;;;;20.82;52.87;95744.53;10465252;28;2014;-67
2023/08/09 14:37:19;;;;;;;;;;;;;;;20.82;53.05;95739.25;10456054;28;1364;-68
2023/08/09 14:42:19;;;;;;;;;;;;;;;20.84;52.88;95742.41;10459855;28;4488;-67
2023/08/09 14:47:19;;;;;;;;;;;;;;;20.85;53.04;95751.09;10459063;28;1818;-66
2023/08/09 14:52:21;;;;;;;;;;;;;;;20.85;52.90;95761.66;10450494;28;1956;-66
2023/08/09 14:57:21;;;;;;;;;;;;;;;20.83;52.85;95759.28;10442492;28;1857;-67
2023/08/09 15:02:22;;;;;;;;;;;;;;;20.82;52.51;95781.41;10459332;28;1944;-66
2023/08/09 15:07:22;;;;;;;;;;;;;;;20.83;52.98;95795.38;10449102;28;1934;-67
2023/08/09 15:12:22;;;;;;;;;;;;;;;20.84;52.98;95804.84;10452753;28;1971;-65
2023/08/09 15:17:27;;;;;;;;;;;;;;;20.83;52.79;95811.97;10442325;28;1946;-67
2023/08/09 15:22:27;;;;;;;;;;;;;;;20.85;52.69;95822.25;10446994;28;1896;-67
2023/08/09 15:27:27;;;;;;;;;;;;;;;20.83;52.82;95827.78;10453156;28;2091;-67
2023/08/09 15:32:30;;;;;;;;;;;;;;;20.84;53.10;95826.72;10449913;28;2093;-67
2023/08/09 15:37:32;;;;;;;;;;;;;;;20.85;53.17;95830.16;10457880;28;2204;-67
2023/08/09 15:42:32;;;;;;;;;;;;;;;20.86;53.36;95829.88;10449032;28;4513;-68
2023/08/09 15:47:32;;;;;;;;;;;;;;;20.88;53.47;95834.84;10447808;28;1918;-67
2023/08/09 15:52:32;;;;;;;;;;;;;;;20.88;53.39;95835.66;10451061;28;1975;-69
2023/08/09 15:57:33;;;;;;;;;;;;;;;20.88;53.59;95821.69;10446484;28;1961;-72
2023/08/09 16:02:33;;;;;;;;;;;;;;;20.87;53.50;95826.19;10453685;28;2124;-72
2023/08/09 16:07:34;;;;;;;;;;;;;;;20.87;53.69;95831.47;10449764;28;1886;-71
2023/08/09 16:12:34;;;;;;;;;;;;;;;20.87;53.75;95839.34;10453703;28;2065;-69
2023/08/09 16:17:34;;;;;;;;;;;;;;;20.88;53.64;95851.47;10448839;28;2160;-67
2023/08/09 16:22:34;;;;;;;;;;;;;;;20.88;54.08;95842.75;10450258;28;1994;-67
2023/08/09 16:27:35;;;;;;;;;;;;;;;20.87;54.34;95849.91;10449737;28;1952;-67
2023/08/09 16:32:36;;;;;;;;;;;;;;;20.89;53.91;95845.16;10446962;28;2229;-67
2023/08/09 16:37:36;;;;;;;;;;;;;;;20.89;54.19;95847.78;10442169;28;1957;-67
2023/08/09 16:42:37;;;;;;;;;;;;;;;20.88;54.23;95856.72;10442611;28;4678;-69
2023/08/09 16:47:37;;;;;;;;;;;;;;;20.90;54.44;95853.81;10440739;28;1865;-65
2023/08/09 16:52:38;;;;;;;;;;;;;;;20.91;54.42;95861.47;10444192;28;2009;-64
2023/08/09 16:57:38;;;;;;;;;;;;;;;20.92;54.55;95867.50;10443163;28;2104;-64
2023/08/09 17:02:38;;;;;;;;;;;;;;;20.92;54.55;95876.19;10449884;28;1877;-64
2023/08/09 17:07:39;;;;;;;;;;;;;;;20.92;54.48;95876.19;10447915;28;2004;-64
2023/08/09 17:12:40;;;;;;;;;;;;;;;20.93;54.75;95875.16;10449508;28;1987;-65
2023/08/09 17:17:40;;;;;;;;;;;;;;;20.94;54.61;95884.63;10458012;28;2004;-65
2023/08/09 17:22:40;;;;;;;;;;;;;;;20.94;54.83;95882.00;10450536;28;1653;-65
2023/08/09 17:27:40;;;;;;;;;;;;;;;20.95;55.21;95890.69;10453858;28;2277;-64
2023/08/09 17:32:41;;;;;;;;;;;;;;;20.94;55.14;95891.72;10454312;28;1965;-65
2023/08/09 17:37:41;;;;;;;;;;;;;;;20.96;55.64;95903.59;10453275;28;1432;-65
2023/08/09 17:42:42;;;;;;;;;;;;;;;20.95;55.79;95896.75;10451874;28;4605;-65
2023/08/09 17:47:43;;;;;;;;;;;;;;;20.95;55.91;95901.22;10459524;28;1345;-65
2023/08/09 17:52:43;;;;;;;;;;;;;;;20.95;56.52;95907.28;10451189;28;1985;-64
2023/08/09 17:57:44;;;;;;;;;;;;;;;20.97;56.74;95896.47;10482463;28;1420;-65
2023/08/09 18:02:44;;;;;;;;;;;;;;;20.98;56.62;95913.84;10457090;28;1459;-65
2023/08/09 18:07:45;;;;;;;;;;;;;;;20.97;56.33;95907.81;10451645;28;1403;-65
2023/08/09 18:12:47;;;;;;;;;;;;;;;20.96;57.00;95913.31;10462015;28;1910;-66
2023/08/09 18:17:47;;;;;;;;;;;;;;;20.97;56.20;95918.34;10454496;28;1686;-66
2023/08/09 18:22:49;;;;;;;;;;;;;;;20.97;56.52;95917.56;10471212;28;2257;-65
2023/08/09 18:27:49;;;;;;;;;;;;;;;20.97;56.43;95917.56;10455924;28;1862;-66
2023/08/09 18:32:49;;;;;;;;;;;;;;;20.95;56.52;95915.19;10449051;28;2147;-66
2023/08/09 18:37:50;;;;;;;;;;;;;;;20.95;56.32;95927.59;10446752;28;1870;-66
2023/08/09 18:42:50;;;;;;;;;;;;;;;20.93;56.46;95930.50;10445779;28;4608;-65
2023/08/09 18:47:50;;;;;;;;;;;;;;;20.94;56.49;95945.22;10481503;28;2100;-66
2023/08/09 18:52:51;;;;;;;;;;;;;;;20.93;56.38;95951.56;10441739;28;1910;-66
2023/08/09 18:57:51;;;;;;;;;;;;;;;20.92;56.68;95963.16;10447278;28;1882;-66
2023/08/09 19:02:51;;;;;;;;;;;;;;;20.92;56.36;95965.78;10448615;28;1921;-66
2023/08/09 19:07:51;;;;;;;;;;;;;;;20.92;56.42;95960.53;10444026;28;2070;-66
2023/08/09 19:12:52;;;;;;;;;;;;;;;20.91;56.42;95966.88;10437424;28;1974;-65
2023/08/09 19:17:54;;;;;;;;;;;;;;;20.90;56.70;95973.19;10455875;28;1904;-67
2023/08/09 19:22:54;;;;;;;;;;;;;;;20.90;56.92;95973.19;10440813;28;2340;-67
2023/08/09 19:27:55;;;;;;;;;;;;;;;20.86;56.79;95972.16;10444816;28;1869;-66
2023/08/09 19:32:55;;;;;;;;;;;;;;;20.85;56.45;95977.69;10441053;28;2081;-67
2023/08/09 19:37:55;;;;;;;;;;;;;;;20.85;57.82;95975.84;10442113;28;1954;-65
2023/08/09 19:42:56;;;;;;;;;;;;;;;20.87;59.32;95981.66;10446830;28;4584;-64
2023/08/09 19:47:58;;;;;;;;;;;;;;;20.86;58.83;95966.88;10449347;28;1899;-65
2023/08/09 19:52:59;;;;;;;;;;;;;;;20.87;59.40;95965.84;10443025;28;1981;-67
2023/08/09 19:57:59;;;;;;;;;;;;;;;20.86;59.44;95961.59;10437423;28;1890;-69
2023/08/09 20:03:01;;;;;;;;;;;;;;;20.81;59.17;95969.53;10464251;28;1926;-68
2023/08/09 20:08:04;;;;;;;;;;;;;;;20.75;59.03;95962.69;10469091;28;1810;-68
2023/08/09 20:13:04;;;;;;;;;;;;;;;20.72;58.34;95965.09;10440958;28;2032;-69
2023/08/09 20:18:05;;;;;;;;;;;;;;;20.69;58.51;95968.28;10469862;28;1889;-68
2023/08/09 20:23:06;;;;;;;;;;;;;;;20.65;59.28;95970.63;10468838;28;1912;-68
2023/08/09 20:28:06;;;;;;;;;;;;;;;20.59;57.38;95979.59;10442485;28;2003;-68
2023/08/09 20:33:07;;;;;;;;;;;;;;;20.54;57.17;95966.47;10439610;28;1998;-68
2023/08/09 20:38:07;;;;;;;;;;;;;;;20.48;56.59;95967.53;10472037;28;1952;-68
2023/08/09 20:43:07;;;;;;;;;;;;;;;20.55;57.71;95961.97;10454678;28;4581;-68
2023/08/09 20:48:08;;;;;;;;;;;;;;;20.58;58.61;95959.63;10440387;28;2246;-68
2023/08/09 20:53:08;;;;;;;;;;;;;;;20.63;58.74;95975.38;10434471;28;1977;-67
2023/08/09 20:58:09;;;;;;;;;;;;;;;20.67;59.15;95984.31;10441115;28;1907;-68
2023/08/09 21:03:09;;;;;;;;;;;;;;;20.68;59.21;95985.91;10440579;28;1949;-69
2023/08/09 21:08:09;;;;;;;;;;;;;;;20.70;58.90;95986.44;10435708;28;1919;-68
2023/08/09 21:13:10;;;;;;;;;;;;;;;20.72;59.36;95999.34;10442412;28;2315;-68
2023/08/09 21:18:10;;;;;;;;;;;;;;;20.73;59.24;96003.56;10441473;28;1865;-68
2023/08/09 21:23:10;;;;;;;;;;;;;;;20.73;59.87;96006.19;10440010;28;1892;-68
2023/08/09 21:28:11;;;;;;;;;;;;;;;20.72;59.76;96002.75;10447224;28;1877;-68
2023/08/09 21:33:11;;;;;;;;;;;;;;;20.72;59.63;96010.66;10440990;28;1957;-67
2023/08/09 21:38:14;;;;;;;;;;;;;;;20.73;60.06;96006.97;10437630;28;2156;-67
2023/08/09 21:43:14;;;;;;;;;;;;;;;20.74;60.24;96011.19;10450987;28;2127;-72
2023/08/09 21:48:15;;;;;;;;;;;;;;;20.75;60.53;96014.63;10444777;28;1951;-72
2023/08/09 21:53:21;;;;;;;;;;;;;;;20.73;60.56;96008.81;10436582;28;2131;-72
2023/08/09 21:58:21;;;;;;;;;;;;;;;20.73;60.85;96028.03;10451107;28;1803;-72
2023/08/09 22:03:21;;;;;;;;;;;;;;;20.73;60.72;96030.66;10446584;28;1816;-72
2023/08/09 22:08:22;;;;;;;;;;;;;;;20.74;60.81;96034.91;10481767;28;1927;-72
2023/08/09 22:13:23;;;;;;;;;;;;;;;20.74;61.14;96034.91;10455348;28;1902;-73
2023/08/09 22:18:23;;;;;;;;;;;;;;;20.75;61.33;96038.31;10463025;28;1889;-72
2023/08/09 22:23:23;;;;;;;;;;;;;;;20.76;61.88;96038.06;10454873;28;1889;-71
2023/08/09 22:28:24;;;;;;;;;;;;;;;20.76;61.75;96038.06;10449847;28;1837;-72
2023/08/09 22:33:24;;;;;;;;;;;;;;;20.76;61.76;96053.84;10448582;28;1915;-72
2023/08/09 22:38:24;;;;;;;;;;;;;;;20.76;62.62;96047.78;10447374;28;1964;-71
2023/08/09 22:43:25;;;;;;;;;;;;;;;20.75;63.05;96046.22;10451329;28;4529;-71
2023/08/09 22:48:25;;;;;;;;;;;;;;;20.75;62.78;96046.22;10456385;28;1922;-71
2023/08/09 22:53:26;;;;;;;;;;;;;;;20.76;63.30;96037.25;10452910;28;1902;-72
2023/08/09 22:58:26;;;;;;;;;;;;;;;20.76;63.38;96024.09;10452447;28;1807;-72
2023/08/09 23:03:26;;;;;;;;;;;;;;;20.76;63.46;96016.97;10447001;28;1926;-71
2023/08/09 23:08:27;;;;;;;;;;;;;;;20.75;62.69;96031.19;10430669;28;2720;-72
2023/08/09 23:13:28;;;;;;;;;;;;;;;20.73;62.86;96020.13;10450021;28;1973;-72
2023/08/09 23:18:28;;;;;;;;;;;;;;;20.71;62.26;96018.84;10444915;28;1893;-71
2023/08/09 23:23:28;;;;;;;;;;;;;;;20.70;62.22;96022.53;10448659;28;1846;-71
2023/08/09 23:28:28;;;;;;;;;;;;;;;20.70;61.99;96025.16;10451140;28;1874;-71
2023/08/09 23:33:29;;;;;;;;;;;;;;;20.67;61.79;96031.72;10448798;28;1910;-70
2023/08/09 23:38:29;;;;;;;;;;;;;;;20.66;61.84;96038.06;10447157;28;1941;-71
2023/08/09 23:43:30;;;;;;;;;;;;;;;20.67;61.96;96033.59;10449255;28;4577;-70
2023/08/09 23:48:30;;;;;;;;;;;;;;;20.67;61.98;96037.00;10447227;28;1897;-71
2023/08/09 23:53:30;;;;;;;;;;;;;;;20.68;62.04;96043.06;10447562;28;2000;-71
2023/08/09 23:58:30;;;;;;;;;;;;;;;20.66;62.55;96045.97;10439802;28;1923;-70
